createdAt,value
2018-09-20T00:00:25.520Z,13.80
2018-09-20T00:05:49.246Z,14.30
2018-09-20T00:08:19.490Z,15.87
2018-09-20T00:10:49.628Z,12.23
2018-09-20T00:13:18.694Z,17.27
2018-09-20T00:15:47.709Z,12.93
2018-09-20T00:18:16.705Z,15.30
2018-09-20T00:20:45.580Z,11.70
2018-09-20T00:23:14.413Z,11.93
2018-09-20T00:25:43.204Z,11.60
2018-09-20T00:28:13.217Z,14.20
2018-09-20T00:30:42.109Z,16.10
2018-09-20T00:33:10.991Z,12.90
2018-09-20T00:35:39.850Z,13.13
2018-09-20T00:38:09.230Z,14.90
2018-09-20T00:40:38.128Z,13.50
2018-09-20T00:43:07.073Z,13.83
2018-09-20T00:45:36.123Z,11.43
2018-09-20T00:48:05.142Z,20.83
2018-09-20T00:50:35.615Z,11.73
2018-09-20T00:53:05.229Z,12.93
2018-09-20T00:55:34.144Z,13.30
2018-09-20T00:58:03.708Z,10.30
2018-09-20T01:00:32.751Z,15.00
2018-09-20T01:03:01.631Z,14.87
2018-09-20T01:05:30.591Z,12.73
2018-09-20T01:07:59.424Z,11.73
2018-09-20T01:10:28.357Z,11.97
2018-09-20T01:12:57.213Z,16.20
2018-09-20T01:15:26.063Z,11.00
2018-09-20T01:17:54.933Z,13.73
2018-09-20T01:20:23.773Z,13.57
2018-09-20T01:22:53.097Z,9.30
2018-09-20T01:25:22.005Z,12.27
2018-09-20T01:27:50.876Z,15.17
2018-09-20T01:30:20.058Z,12.67
2018-09-20T01:32:49.126Z,12.33
2018-09-20T01:35:18.621Z,15.13
2018-09-20T01:37:47.428Z,13.40
2018-09-20T01:40:16.358Z,13.30
2018-09-20T01:42:46.142Z,11.83
2018-09-20T01:45:15.815Z,14.83
2018-09-20T01:47:44.731Z,10.40
2018-09-20T01:50:13.797Z,14.50
2018-09-20T01:52:43.420Z,15.70
2018-09-20T01:55:13.038Z,14.23
2018-09-20T01:57:42.134Z,10.00
2018-09-20T02:00:11.450Z,14.33
2018-09-20T02:02:41.672Z,14.80
2018-09-20T02:05:11.783Z,12.83
2018-09-20T02:07:41.002Z,13.23
2018-09-20T02:10:09.958Z,12.47
2018-09-20T02:12:38.982Z,13.67
2018-09-20T02:15:08.353Z,14.43
2018-09-20T02:17:37.459Z,12.17
2018-09-20T02:20:07.994Z,10.60
2018-09-20T02:22:36.994Z,12.07
2018-09-20T02:25:06.188Z,11.00
2018-09-20T02:27:35.795Z,14.57
2018-09-20T02:30:04.950Z,14.67
2018-09-20T02:32:33.927Z,10.93
2018-09-20T02:35:02.934Z,19.40
2018-09-20T02:37:31.987Z,11.47
2018-09-20T02:40:07.644Z,14.73
2018-09-20T02:42:36.717Z,14.67
2018-09-20T02:45:05.780Z,12.00
2018-09-20T02:47:34.668Z,12.60
2018-09-20T02:50:04.473Z,11.90
2018-09-20T02:52:33.761Z,15.03
2018-09-20T02:55:02.550Z,10.70
2018-09-20T02:57:31.410Z,14.77
2018-09-20T03:00:00.448Z,13.77
2018-09-20T03:02:29.382Z,13.43
2018-09-20T03:04:58.430Z,14.87
2018-09-20T03:07:27.259Z,12.37
2018-09-20T03:09:56.132Z,13.70
2018-09-20T03:12:25.134Z,12.50
2018-09-20T03:14:54.017Z,13.40
2018-09-20T03:17:22.994Z,10.87
2018-09-20T03:19:51.908Z,12.63
2018-09-20T03:22:20.850Z,13.53
2018-09-20T03:24:49.682Z,18.80
2018-09-20T03:27:18.644Z,21.83
2018-09-20T03:29:48.000Z,19.00
2018-09-20T03:32:16.967Z,21.43
2018-09-20T03:34:45.892Z,12.90
2018-09-20T03:37:14.955Z,14.80
2018-09-20T03:39:44.273Z,13.30
2018-09-20T03:42:13.153Z,16.87
2018-09-20T03:44:42.028Z,20.23
2018-09-20T03:47:10.954Z,13.43
2018-09-20T03:49:39.778Z,18.63
2018-09-20T03:52:08.700Z,15.10
2018-09-20T03:54:37.658Z,15.50
2018-09-20T03:57:06.517Z,14.57
2018-09-20T03:59:35.712Z,14.10
2018-09-20T04:02:04.769Z,13.80
2018-09-20T04:04:33.699Z,11.90
2018-09-20T04:07:02.788Z,16.80
2018-09-20T04:09:31.810Z,14.97
2018-09-20T04:12:01.621Z,13.37
2018-09-20T04:14:30.528Z,13.70
2018-09-20T04:17:00.404Z,14.00
2018-09-20T04:19:29.596Z,15.23
2018-09-20T04:21:58.533Z,13.63
2018-09-20T04:24:28.449Z,15.27
2018-09-20T04:26:57.372Z,14.13
2018-09-20T04:29:26.390Z,18.27
2018-09-20T04:31:55.309Z,15.13
2018-09-20T04:34:24.298Z,12.37
2018-09-20T04:36:53.168Z,14.03
2018-09-20T04:39:22.368Z,17.23
2018-09-20T04:41:51.290Z,17.50
2018-09-20T04:44:21.230Z,14.57
2018-09-20T04:46:50.209Z,13.83
2018-09-20T04:49:19.108Z,13.00
2018-09-20T04:51:48.189Z,13.37
2018-09-20T04:54:17.049Z,13.83
2018-09-20T04:56:46.003Z,14.00
2018-09-20T04:59:14.958Z,16.00
2018-09-20T05:01:44.325Z,17.33
2018-09-20T05:04:13.248Z,18.80
2018-09-20T05:06:42.268Z,15.40
2018-09-20T05:09:13.260Z,15.53
2018-09-20T05:11:43.584Z,16.90
2018-09-20T05:14:12.660Z,19.03
2018-09-20T05:16:42.361Z,15.20
2018-09-20T05:19:11.391Z,13.67
2018-09-20T05:21:40.456Z,15.60
2018-09-20T05:24:09.554Z,20.00
2018-09-20T05:26:38.643Z,17.23
2018-09-20T05:29:08.173Z,13.97
2018-09-20T05:31:37.192Z,19.53
2018-09-20T05:34:07.228Z,19.07
2018-09-20T05:36:36.213Z,15.63
2018-09-20T05:39:07.001Z,16.53
2018-09-20T05:41:36.088Z,17.80
2018-09-20T05:44:06.405Z,18.70
2018-09-20T05:46:35.443Z,20.00
2018-09-20T05:49:04.326Z,16.43
2018-09-20T05:51:33.387Z,15.30
2018-09-20T05:54:02.516Z,16.43
2018-09-20T05:56:32.165Z,18.93
2018-09-20T05:59:01.521Z,13.33
2018-09-20T06:01:30.449Z,18.10
2018-09-20T06:03:59.643Z,11.93
2018-09-20T06:06:28.708Z,14.90
2018-09-20T06:08:57.629Z,13.40
2018-09-20T06:11:26.678Z,16.87
2018-09-20T06:13:55.676Z,15.03
2018-09-20T06:16:24.628Z,16.07
2018-09-20T06:18:53.743Z,16.90
2018-09-20T06:21:23.687Z,13.37
2018-09-20T06:23:52.974Z,20.03
2018-09-20T06:26:23.114Z,22.77
2018-09-20T06:28:56.783Z,13.43
2018-09-20T06:31:26.296Z,16.33
2018-09-20T06:33:55.302Z,19.70
2018-09-20T06:36:24.303Z,10.53
2018-09-20T06:38:53.338Z,18.17
2018-09-20T06:41:22.386Z,17.93
2018-09-20T06:43:51.413Z,14.80
2018-09-20T06:46:20.474Z,12.53
2018-09-20T06:48:49.627Z,18.77
2018-09-20T06:51:18.897Z,17.40
2018-09-20T06:53:54.118Z,12.43
2018-09-20T06:56:23.143Z,11.13
2018-09-20T06:58:52.035Z,10.50
2018-09-20T07:01:21.146Z,19.63
2018-09-20T07:03:50.039Z,20.53
2018-09-20T07:06:18.951Z,13.33
2018-09-20T07:08:47.883Z,14.33
2018-09-20T07:11:17.925Z,10.73
2018-09-20T07:13:46.974Z,18.10
2018-09-20T07:16:15.957Z,14.00
2018-09-20T07:18:44.892Z,12.30
2018-09-20T07:21:13.784Z,12.50
2018-09-20T07:23:42.727Z,17.80
2018-09-20T07:26:11.716Z,12.03
2018-09-20T07:28:40.810Z,11.93
2018-09-20T07:31:10.410Z,13.60
2018-09-20T07:33:39.416Z,15.87
2018-09-20T07:36:08.978Z,12.60
2018-09-20T07:38:37.912Z,10.43
2018-09-20T07:41:07.233Z,16.63
2018-09-20T07:43:42.686Z,16.53
2018-09-20T07:46:11.714Z,13.00
2018-09-20T07:48:40.628Z,11.70
2018-09-20T07:51:10.788Z,14.27
2018-09-20T07:53:39.934Z,9.10
2018-09-20T07:56:08.971Z,9.43
2018-09-20T07:58:37.971Z,10.87
2018-09-20T08:01:07.359Z,10.30
2018-09-20T08:03:36.473Z,14.13
2018-09-20T08:06:05.568Z,10.73
2018-09-20T08:08:34.768Z,14.70
2018-09-20T08:11:03.962Z,13.13
2018-09-20T08:13:33.270Z,13.70
2018-09-20T08:16:02.245Z,11.67
2018-09-20T08:18:31.354Z,10.73
2018-09-20T08:21:00.369Z,7.90
2018-09-20T08:23:29.262Z,9.63
2018-09-20T08:25:58.326Z,12.90
2018-09-20T08:28:27.293Z,11.07
2018-09-20T08:30:56.291Z,12.77
2018-09-20T08:33:25.328Z,13.10
2018-09-20T08:35:54.391Z,10.00
2018-09-20T08:38:23.389Z,12.27
2018-09-20T08:40:52.309Z,6.47
2018-09-20T08:43:21.208Z,9.40
2018-09-20T08:45:51.753Z,7.33
2018-09-20T08:48:20.749Z,12.57
2018-09-20T08:50:49.635Z,10.80
2018-09-20T08:53:18.565Z,7.97
2018-09-20T08:55:47.663Z,7.83
2018-09-20T08:58:16.646Z,11.10
2018-09-20T09:00:45.658Z,12.37
2018-09-20T09:03:14.693Z,6.80
2018-09-20T09:05:43.581Z,18.47
2018-09-20T09:08:12.518Z,14.80
2018-09-20T09:10:41.683Z,10.90
2018-09-20T09:13:10.715Z,10.60
2018-09-20T09:15:39.709Z,10.70
2018-09-20T09:18:20.488Z,8.60
2018-09-20T09:20:49.790Z,7.83
2018-09-20T09:23:19.175Z,12.10
2018-09-20T09:25:48.174Z,10.33
2018-09-20T09:28:17.232Z,11.97
2018-09-20T09:30:46.672Z,15.23
2018-09-20T09:33:15.908Z,12.03
2018-09-20T09:35:44.854Z,7.90
2018-09-20T09:38:14.062Z,5.63
2018-09-20T09:40:43.182Z,6.90
2018-09-20T09:43:12.166Z,8.50
2018-09-20T09:45:41.135Z,6.77
2018-09-20T09:48:10.218Z,7.13
2018-09-20T09:50:39.122Z,8.27
2018-09-20T09:53:08.233Z,7.73
2018-09-20T09:55:37.160Z,9.00
2018-09-20T09:58:06.308Z,7.67
2018-09-20T10:00:37.253Z,6.60
2018-09-20T10:03:07.291Z,7.97
2018-09-20T10:05:36.251Z,11.93
2018-09-20T10:08:05.664Z,6.70
2018-09-20T10:10:35.913Z,13.90
2018-09-20T10:13:04.924Z,10.70
2018-09-20T10:15:33.870Z,8.70
2018-09-20T10:18:02.996Z,8.70
2018-09-20T10:20:31.970Z,8.67
2018-09-20T10:23:01.166Z,10.20
2018-09-20T10:25:30.189Z,10.30
2018-09-20T10:27:59.283Z,5.83
2018-09-20T10:30:28.338Z,6.00
2018-09-20T10:32:57.354Z,8.73
2018-09-20T10:35:27.669Z,7.23
2018-09-20T10:37:59.481Z,5.80
2018-09-20T10:40:28.383Z,5.97
2018-09-20T10:42:57.364Z,9.03
2018-09-20T10:45:26.405Z,5.40
2018-09-20T10:47:55.389Z,7.63
2018-09-20T10:50:24.506Z,7.23
2018-09-20T10:52:53.938Z,6.60
2018-09-20T10:55:23.061Z,6.33
2018-09-20T10:57:52.990Z,6.70
2018-09-20T11:00:33.322Z,8.17
2018-09-20T11:03:02.662Z,6.40
2018-09-20T11:05:31.702Z,5.67
2018-09-20T11:08:01.316Z,5.40
2018-09-20T11:10:30.282Z,9.50
2018-09-20T11:13:03.271Z,6.50
2018-09-20T11:15:33.373Z,10.87
2018-09-20T11:18:02.515Z,6.97
2018-09-20T11:20:41.815Z,6.47
2018-09-20T11:23:10.954Z,7.40
2018-09-20T11:25:39.891Z,9.53
2018-09-20T11:28:08.943Z,6.00
2018-09-20T11:30:38.052Z,5.60
2018-09-20T11:33:07.175Z,8.10
2018-09-20T11:35:36.328Z,12.87
2018-09-20T11:38:05.359Z,6.33
2018-09-20T11:40:34.400Z,11.00
2018-09-20T11:43:03.356Z,8.27
2018-09-20T11:45:32.595Z,8.20
2018-09-20T11:48:01.568Z,5.77
2018-09-20T11:50:30.530Z,6.43
2018-09-20T11:52:59.614Z,8.20
2018-09-20T11:55:28.851Z,8.73
2018-09-20T11:57:58.833Z,6.30
2018-09-20T12:00:27.786Z,8.43
2018-09-20T12:02:56.965Z,7.47
2018-09-20T12:05:25.934Z,6.57
2018-09-20T12:07:54.941Z,6.27
2018-09-20T12:10:25.069Z,8.03
2018-09-20T12:12:55.300Z,7.30
2018-09-20T12:15:24.497Z,10.10
2018-09-20T12:17:54.682Z,6.43
2018-09-20T12:20:23.723Z,5.73
2018-09-20T12:22:52.832Z,13.87
2018-09-20T12:25:22.385Z,8.13
2018-09-20T12:27:51.366Z,10.73
2018-09-20T12:30:20.927Z,10.10
2018-09-20T12:32:50.787Z,7.10
2018-09-20T12:35:19.668Z,8.70
2018-09-20T12:37:48.875Z,7.70
2018-09-20T12:40:18.074Z,9.50
2018-09-20T12:42:47.043Z,11.50
2018-09-20T12:45:16.289Z,6.90
2018-09-20T12:47:45.553Z,7.67
2018-09-20T12:50:14.649Z,8.33
2018-09-20T12:52:44.168Z,8.67
2018-09-20T12:55:13.283Z,10.10
2018-09-20T12:57:42.503Z,9.83
2018-09-20T13:00:11.648Z,7.63
2018-09-20T13:02:47.258Z,7.27
2018-09-20T13:05:16.384Z,8.23
2018-09-20T13:07:45.359Z,8.43
2018-09-20T13:10:14.451Z,9.03
2018-09-20T13:12:43.482Z,11.30
2018-09-20T13:15:13.193Z,7.80
2018-09-20T13:17:42.343Z,11.90
2018-09-20T13:20:11.751Z,9.10
2018-09-20T13:22:40.911Z,7.57
2018-09-20T13:25:09.984Z,11.00
2018-09-20T13:27:39.125Z,10.80
2018-09-20T13:30:08.286Z,7.13
2018-09-20T13:32:40.741Z,7.40
2018-09-20T13:35:09.866Z,10.40
2018-09-20T13:37:38.858Z,8.70
2018-09-20T13:40:07.949Z,6.57
2018-09-20T13:42:38.260Z,6.97
2018-09-20T13:45:07.783Z,7.87
2018-09-20T13:47:37.604Z,7.40
2018-09-20T13:50:07.859Z,8.77
2018-09-20T13:52:37.122Z,8.60
2018-09-20T13:55:06.432Z,6.50
2018-09-20T13:57:35.520Z,6.63
2018-09-20T14:00:07.629Z,7.63
2018-09-20T14:02:36.951Z,6.43
2018-09-20T14:05:06.305Z,6.73
2018-09-20T14:07:35.363Z,7.43
2018-09-20T14:10:05.416Z,6.13
2018-09-20T14:12:34.934Z,6.77
2018-09-20T14:15:05.729Z,5.80
2018-09-20T14:17:34.809Z,8.13
2018-09-20T14:20:04.938Z,10.93
2018-09-20T14:22:33.933Z,9.13
2018-09-20T14:25:03.038Z,8.50
2018-09-20T14:27:32.613Z,6.60
2018-09-20T14:30:01.710Z,11.37
2018-09-20T14:32:36.033Z,6.70
2018-09-20T14:35:05.134Z,9.73
2018-09-20T14:37:34.226Z,7.93
2018-09-20T14:40:04.249Z,8.37
2018-09-20T14:42:33.305Z,6.47
2018-09-20T14:45:03.514Z,6.60
2018-09-20T14:47:32.885Z,8.43
2018-09-20T14:50:01.769Z,6.30
2018-09-20T14:52:31.165Z,11.90
2018-09-20T14:55:00.704Z,6.77
2018-09-20T14:57:30.490Z,8.73
2018-09-20T14:59:59.769Z,6.83
2018-09-20T15:02:29.106Z,7.00
2018-09-20T15:04:57.968Z,8.07
2018-09-20T15:07:27.372Z,7.27
2018-09-20T15:09:56.393Z,6.43
2018-09-20T15:12:25.517Z,10.17
2018-09-20T15:14:54.586Z,12.80
2018-09-20T15:17:23.716Z,6.60
2018-09-20T15:19:52.817Z,8.93
2018-09-20T15:22:22.670Z,5.70
2018-09-20T15:24:51.613Z,5.73
2018-09-20T15:27:21.150Z,6.37
2018-09-20T15:29:51.302Z,7.13
2018-09-20T15:32:20.486Z,6.50
2018-09-20T15:34:49.792Z,7.00
2018-09-20T15:37:18.813Z,8.97
2018-09-20T15:39:53.019Z,6.20
2018-09-20T15:42:21.991Z,8.83
2018-09-20T15:44:51.105Z,5.73
2018-09-20T15:47:20.659Z,6.40
2018-09-20T15:49:49.740Z,7.53
2018-09-20T15:52:18.781Z,8.50
2018-09-20T15:54:47.961Z,8.27
2018-09-20T15:57:16.988Z,6.77
2018-09-20T15:59:46.160Z,7.70
2018-09-20T16:02:15.266Z,6.00
2018-09-20T16:04:45.185Z,6.90
2018-09-20T16:07:14.189Z,5.63
2018-09-20T16:09:43.131Z,8.90
2018-09-20T16:12:12.267Z,7.60
2018-09-20T16:14:41.956Z,8.47
2018-09-20T16:17:11.077Z,7.67
2018-09-20T16:19:40.109Z,9.30
2018-09-20T16:22:09.066Z,11.97
2018-09-20T16:24:38.134Z,7.93
2018-09-20T16:27:07.666Z,10.60
2018-09-20T16:30:50.914Z,10.03
2018-09-20T16:33:39.728Z,7.97
2018-09-20T16:36:51.878Z,8.23
2018-09-20T16:39:24.525Z,7.13
2018-09-20T16:41:57.710Z,7.00
2018-09-20T16:44:26.823Z,8.50
2018-09-20T16:46:55.817Z,6.97
2018-09-20T16:49:26.048Z,7.40
2018-09-20T16:51:55.144Z,11.90
2018-09-20T16:54:25.090Z,8.90
2018-09-20T16:56:54.138Z,7.67
2018-09-20T16:59:23.214Z,7.70
2018-09-20T17:01:56.747Z,11.00
2018-09-20T17:04:25.760Z,8.73
2018-09-20T17:06:54.757Z,10.23
2018-09-20T17:09:24.833Z,7.80
2018-09-20T17:11:54.909Z,7.73
2018-09-20T17:14:24.198Z,9.30
2018-09-20T17:16:53.316Z,9.60
2018-09-20T17:19:22.538Z,10.53
2018-09-20T17:21:53.595Z,8.37
2018-09-20T17:24:24.833Z,12.37
2018-09-20T17:26:53.785Z,11.93
2018-09-20T17:29:22.813Z,8.40
2018-09-20T17:31:52.923Z,10.10
2018-09-20T17:34:22.231Z,9.37
2018-09-20T17:36:56.448Z,10.73
2018-09-20T17:39:26.716Z,15.40
2018-09-20T17:41:58.244Z,11.20
2018-09-20T17:44:27.872Z,10.10
2018-09-20T17:46:56.940Z,11.40
2018-09-20T17:49:26.026Z,16.70
2018-09-20T17:51:55.436Z,11.77
2018-09-20T17:54:25.157Z,11.57
2018-09-20T17:56:54.776Z,13.77
2018-09-20T17:59:23.789Z,14.70
2018-09-20T18:01:53.064Z,14.63
2018-09-20T18:04:22.248Z,13.23
2018-09-20T18:06:54.310Z,14.53
2018-09-20T18:09:23.360Z,11.53
2018-09-20T18:11:52.399Z,14.83
2018-09-20T18:14:22.002Z,14.90
2018-09-20T18:16:51.213Z,11.13
2018-09-20T18:21:57.276Z,14.13
2018-09-20T18:24:26.373Z,15.43
2018-09-20T18:26:55.385Z,10.30
2018-09-20T18:29:24.509Z,11.53
2018-09-20T18:31:53.597Z,11.43
2018-09-20T18:34:22.738Z,11.53
2018-09-20T18:36:54.649Z,11.43
2018-09-20T18:39:28.889Z,21.40
2018-09-20T18:41:58.072Z,11.27
2018-09-20T18:44:27.073Z,13.97
2018-09-20T18:46:58.602Z,11.60
2018-09-20T18:49:27.682Z,14.67
2018-09-20T18:51:57.959Z,15.13
2018-09-20T18:54:30.384Z,13.23
2018-09-20T18:56:59.300Z,13.90
2018-09-20T18:59:28.251Z,12.17
2018-09-20T19:01:57.442Z,15.20
2018-09-20T19:04:27.372Z,18.97
2018-09-20T19:06:56.782Z,13.33
2018-09-20T19:09:25.889Z,12.80
2018-09-20T19:11:54.765Z,15.60
2018-09-20T19:14:24.066Z,13.83
2018-09-20T19:16:53.060Z,14.17
2018-09-20T19:19:22.148Z,16.00
2018-09-20T19:21:51.385Z,14.17
2018-09-20T19:24:20.348Z,12.00
2018-09-20T19:26:49.200Z,11.77
2018-09-20T19:29:18.327Z,20.33
2018-09-20T19:31:47.245Z,13.30
2018-09-20T19:34:16.244Z,18.27
2018-09-20T19:36:45.341Z,13.23
2018-09-20T19:39:14.283Z,14.03
2018-09-20T19:41:43.404Z,14.40
2018-09-20T19:44:13.349Z,13.70
2018-09-20T19:46:42.230Z,17.70
2018-09-20T19:49:11.308Z,17.30
2018-09-20T19:51:40.555Z,14.93
2018-09-20T19:54:09.527Z,15.30
2018-09-20T19:56:38.352Z,13.90
2018-09-20T19:59:07.675Z,16.90
2018-09-20T20:01:36.750Z,12.57
2018-09-20T20:04:05.762Z,13.87
2018-09-20T20:06:34.744Z,18.17
2018-09-20T20:09:04.890Z,15.77
2018-09-20T20:11:34.070Z,17.40
2018-09-20T20:14:02.994Z,16.10
2018-09-20T20:16:31.959Z,15.63
2018-09-20T20:19:01.221Z,17.00
2018-09-20T20:21:30.229Z,14.37
2018-09-20T20:23:59.379Z,15.63
2018-09-20T20:26:28.393Z,14.43
2018-09-20T20:28:57.268Z,15.10
2018-09-20T20:31:26.342Z,13.80
2018-09-20T20:33:55.725Z,16.50
2018-09-20T20:36:25.330Z,13.20
2018-09-20T20:38:54.560Z,15.87
2018-09-20T20:41:23.735Z,15.57
2018-09-20T20:43:53.228Z,15.50
2018-09-20T20:46:22.417Z,13.97
2018-09-20T20:48:51.351Z,23.77
2018-09-20T20:51:21.379Z,17.60
2018-09-20T20:53:50.425Z,20.27
2018-09-20T20:56:19.508Z,19.03
2018-09-20T20:58:50.843Z,14.47
2018-09-20T21:01:20.671Z,19.17
2018-09-20T21:03:50.582Z,23.30
2018-09-20T21:06:19.880Z,16.23
2018-09-20T21:08:48.902Z,19.20
2018-09-20T21:11:17.973Z,20.90
2018-09-20T21:13:46.993Z,20.40
2018-09-20T21:16:15.905Z,17.50
2018-09-20T21:18:46.344Z,15.83
2018-09-20T21:21:16.394Z,19.70
2018-09-20T21:23:45.460Z,16.00
2018-09-20T21:26:14.353Z,18.27
2018-09-20T21:28:43.995Z,20.77
2018-09-20T21:31:13.583Z,18.73
2018-09-20T21:33:42.688Z,17.30
2018-09-20T21:36:12.485Z,17.20
2018-09-20T21:38:41.397Z,18.10
2018-09-20T21:41:10.412Z,22.57
2018-09-20T21:43:39.355Z,18.70
2018-09-20T21:46:08.985Z,24.50
2018-09-20T21:48:38.047Z,22.13
2018-09-20T21:51:07.347Z,20.80
2018-09-20T21:53:36.708Z,16.73
2018-09-20T21:56:05.691Z,16.93
2018-09-20T21:58:34.611Z,19.80
2018-09-20T22:01:04.791Z,14.33
2018-09-20T22:03:34.013Z,18.13
2018-09-20T22:06:03.063Z,18.40
2018-09-20T22:08:31.936Z,17.87
2018-09-20T22:11:00.844Z,22.50
2018-09-20T22:13:29.857Z,18.70
2018-09-20T22:15:58.778Z,16.50
2018-09-20T22:18:27.806Z,16.43
2018-09-20T22:20:56.765Z,15.00
2018-09-20T22:23:24.397Z,17.30
2018-09-20T22:25:51.963Z,17.80
2018-09-20T22:28:19.525Z,20.47
2018-09-20T22:30:47.074Z,17.80
2018-09-20T22:33:14.711Z,15.87
2018-09-20T22:35:42.291Z,28.73
2018-09-20T22:38:09.866Z,20.13
2018-09-20T22:40:37.369Z,15.10
2018-09-20T22:43:04.992Z,15.37
2018-09-20T22:45:32.534Z,21.50
2018-09-20T22:48:00.097Z,22.33
2018-09-20T22:50:27.658Z,16.83
2018-09-20T22:52:55.174Z,17.83
2018-09-20T22:55:22.732Z,20.63
2018-09-20T22:57:50.356Z,16.33
2018-09-20T23:00:24.769Z,18.93
2018-09-20T23:02:53.569Z,16.53
2018-09-20T23:05:21.170Z,15.40
2018-09-20T23:07:49.150Z,14.30
2018-09-20T23:10:16.812Z,20.83
2018-09-20T23:12:45.007Z,16.73
2018-09-20T23:15:12.521Z,16.30
2018-09-20T23:17:40.145Z,15.47
2018-09-20T23:20:09.043Z,15.23
2018-09-20T23:22:38.038Z,14.97
2018-09-20T23:25:07.227Z,17.70
2018-09-20T23:27:36.190Z,14.70
2018-09-20T23:30:05.100Z,16.97
2018-09-20T23:32:34.037Z,18.73
2018-09-20T23:35:03.142Z,16.27
2018-09-20T23:37:32.130Z,19.00
2018-09-20T23:40:01.494Z,16.10
2018-09-20T23:42:31.068Z,13.67
2018-09-20T23:44:59.984Z,13.40
2018-09-20T23:47:28.849Z,14.50
2018-09-20T23:49:57.671Z,16.00
2018-09-20T23:52:27.351Z,14.30
2018-09-20T23:54:56.851Z,15.70
2018-09-20T23:57:25.989Z,14.30
2018-09-20T23:59:54.885Z,16.43
